createdAt,value
2019-02-26T00:00:33.164Z,80.95
2019-02-26T00:01:37.436Z,80.91
2019-02-26T00:02:41.630Z,80.85
2019-02-26T00:03:45.885Z,80.79
2019-02-26T00:04:51.682Z,80.84
2019-02-26T00:05:56.668Z,81.23
2019-02-26T00:07:00.327Z,81.28
2019-02-26T00:08:02.787Z,81.20
2019-02-26T00:09:06.846Z,81.00
2019-02-26T00:10:11.044Z,81.28
2019-02-26T00:11:15.244Z,81.42
2019-02-26T00:12:21.918Z,81.38
2019-02-26T00:13:25.074Z,81.08
2019-02-26T00:14:30.234Z,81.39
2019-02-26T00:15:35.562Z,81.12
2019-02-26T00:16:39.760Z,81.31
2019-02-26T00:17:42.956Z,80.95
2019-02-26T00:18:44.718Z,80.92
2019-02-26T00:19:48.924Z,80.91
2019-02-26T00:20:54.141Z,80.99
2019-02-26T00:21:57.392Z,81.03
2019-02-26T00:23:02.731Z,81.01
2019-02-26T00:24:07.329Z,80.74
2019-02-26T00:25:10.909Z,80.63
2019-02-26T00:26:15.596Z,80.58
2019-02-26T00:27:18.302Z,80.53
2019-02-26T00:28:22.570Z,80.46
2019-02-26T00:29:28.103Z,80.39
2019-02-26T00:30:31.630Z,80.39
2019-02-26T00:31:35.180Z,80.27
2019-02-26T00:32:40.498Z,80.24
2019-02-26T00:33:43.547Z,80.34
2019-02-26T00:34:47.788Z,80.26
2019-02-26T00:35:52.025Z,80.25
2019-02-26T00:36:57.269Z,80.18
2019-02-26T00:38:00.540Z,80.13
2019-02-26T00:39:05.493Z,80.10
2019-02-26T00:40:10.062Z,80.08
2019-02-26T00:41:13.206Z,80.05
2019-02-26T00:42:19.509Z,79.98
2019-02-26T00:43:25.403Z,79.96
2019-02-26T00:44:27.525Z,79.96
2019-02-26T00:45:31.751Z,79.98
2019-02-26T00:46:34.748Z,79.92
2019-02-26T00:47:38.803Z,79.82
2019-02-26T00:48:43.155Z,79.79
2019-02-26T00:49:48.566Z,79.78
2019-02-26T00:50:52.269Z,79.73
2019-02-26T00:51:55.196Z,79.71
2019-02-26T00:53:01.606Z,79.75
2019-02-26T00:54:04.110Z,79.68
2019-02-26T00:55:09.452Z,79.61
2019-02-26T00:56:11.979Z,79.64
2019-02-26T00:57:16.258Z,79.60
2019-02-26T00:58:20.482Z,79.54
2019-02-26T00:59:24.706Z,79.55
2019-02-26T01:00:30.784Z,79.59
2019-02-26T01:01:33.164Z,79.54
2019-02-26T01:02:37.410Z,79.50
2019-02-26T01:03:43.096Z,79.50
2019-02-26T01:04:46.742Z,79.46
2019-02-26T01:05:50.013Z,79.42
2019-02-26T01:06:54.285Z,79.44
2019-02-26T01:07:58.517Z,79.43
2019-02-26T01:09:05.489Z,79.45
2019-02-26T01:10:06.837Z,79.42
2019-02-26T01:11:11.106Z,79.44
2019-02-26T01:12:16.615Z,79.46
2019-02-26T01:13:20.206Z,79.08
2019-02-26T01:14:24.706Z,79.13
2019-02-26T01:15:27.958Z,79.42
2019-02-26T01:16:32.167Z,79.58
2019-02-26T01:17:38.369Z,79.60
2019-02-26T01:18:42.056Z,79.84
2019-02-26T01:19:44.748Z,79.93
2019-02-26T01:20:50.687Z,79.93
2019-02-26T01:21:53.169Z,79.98
2019-02-26T01:22:57.390Z,79.92
2019-02-26T01:24:02.382Z,80.02
2019-02-26T01:25:05.753Z,80.12
2019-02-26T01:26:11.863Z,80.14
2019-02-26T01:27:14.159Z,80.03
2019-02-26T01:28:20.296Z,80.09
2019-02-26T01:29:23.050Z,80.05
2019-02-26T01:30:28.889Z,79.86
2019-02-26T01:31:32.085Z,79.80
2019-02-26T01:32:35.273Z,79.81
2019-02-26T01:33:39.418Z,79.86
2019-02-26T01:34:45.000Z,80.04
2019-02-26T01:35:47.832Z,80.15
2019-02-26T01:36:52.026Z,80.21
2019-02-26T01:37:58.111Z,80.13
2019-02-26T01:39:00.512Z,80.12
2019-02-26T01:40:07.328Z,80.08
2019-02-26T01:41:11.346Z,80.16
2019-02-26T01:42:13.420Z,80.15
2019-02-26T01:43:17.342Z,80.18
2019-02-26T01:44:21.532Z,80.11
2019-02-26T01:45:27.128Z,80.25
2019-02-26T01:46:32.121Z,80.40
2019-02-26T01:47:34.233Z,80.52
2019-02-26T01:48:39.545Z,80.54
2019-02-26T01:49:44.173Z,80.41
2019-02-26T01:50:46.827Z,80.37
2019-02-26T01:51:51.787Z,80.36
2019-02-26T01:52:56.803Z,80.34
2019-02-26T01:54:02.420Z,80.28
2019-02-26T01:55:05.698Z,80.25
2019-02-26T01:56:09.873Z,80.22
2019-02-26T01:57:14.062Z,80.15
2019-02-26T01:58:18.290Z,80.20
2019-02-26T01:59:22.474Z,80.45
2019-02-26T02:00:26.679Z,80.27
2019-02-26T02:01:30.882Z,80.40
2019-02-26T02:02:35.070Z,80.50
2019-02-26T02:03:39.310Z,80.51
2019-02-26T02:04:43.556Z,80.32
2019-02-26T02:05:48.534Z,80.43
2019-02-26T02:06:51.894Z,80.55
2019-02-26T02:07:56.139Z,80.30
2019-02-26T02:09:00.207Z,80.24
2019-02-26T02:10:04.495Z,80.29
2019-02-26T02:11:09.350Z,80.13
2019-02-26T02:12:12.879Z,80.09
2019-02-26T02:13:17.124Z,79.98
2019-02-26T02:14:21.349Z,79.91
2019-02-26T02:15:25.457Z,79.91
2019-02-26T02:16:31.463Z,79.83
2019-02-26T02:17:35.548Z,79.73
2019-02-26T02:18:38.174Z,79.72
2019-02-26T02:19:42.415Z,79.81
2019-02-26T02:20:46.631Z,79.91
2019-02-26T02:21:51.519Z,80.00
2019-02-26T02:22:55.953Z,80.01
2019-02-26T02:23:59.195Z,79.89
2019-02-26T02:25:03.403Z,79.97
2019-02-26T02:26:09.368Z,79.89
2019-02-26T02:27:15.001Z,79.86
2019-02-26T02:28:16.679Z,79.86
2019-02-26T02:29:21.661Z,80.03
2019-02-26T02:30:30.252Z,80.12
2019-02-26T02:31:31.397Z,80.03
2019-02-26T02:32:34.474Z,79.90
2019-02-26T02:33:37.612Z,79.86
2019-02-26T02:34:43.064Z,80.11
2019-02-26T02:35:45.296Z,80.12
2019-02-26T02:36:49.566Z,80.01
2019-02-26T02:37:56.259Z,80.02
2019-02-26T02:38:57.933Z,80.15
2019-02-26T02:40:02.172Z,80.02
2019-02-26T02:41:06.367Z,79.90
2019-02-26T02:42:11.618Z,79.84
2019-02-26T02:43:16.164Z,79.95
2019-02-26T02:44:20.578Z,79.88
2019-02-26T02:45:23.207Z,79.73
2019-02-26T02:46:27.460Z,79.92
2019-02-26T02:47:35.736Z,79.93
2019-02-26T02:48:35.863Z,79.91
2019-02-26T02:49:42.478Z,79.89
2019-02-26T02:50:44.243Z,79.87
2019-02-26T02:51:48.404Z,79.98
2019-02-26T02:52:53.502Z,80.09
2019-02-26T02:53:59.237Z,80.10
2019-02-26T02:55:01.118Z,79.96
2019-02-26T02:56:06.369Z,79.91
2019-02-26T02:57:10.072Z,80.30
2019-02-26T02:58:15.898Z,80.21
2019-02-26T02:59:17.972Z,80.03
2019-02-26T03:00:23.895Z,79.97
2019-02-26T03:01:28.675Z,80.00
2019-02-26T03:02:30.639Z,79.99
2019-02-26T03:03:34.834Z,80.15
2019-02-26T03:04:39.060Z,79.94
2019-02-26T03:05:43.961Z,79.93
2019-02-26T03:06:52.830Z,80.02
2019-02-26T03:07:56.202Z,79.96
2019-02-26T03:08:57.943Z,79.88
2019-02-26T03:10:06.127Z,79.80
2019-02-26T03:11:06.380Z,79.77
2019-02-26T03:12:10.585Z,79.83
2019-02-26T03:13:16.775Z,79.74
2019-02-26T03:14:19.052Z,79.83
2019-02-26T03:15:24.541Z,79.69
2019-02-26T03:16:27.434Z,79.63
2019-02-26T03:17:31.672Z,79.61
2019-02-26T03:18:35.863Z,79.58
2019-02-26T03:19:41.579Z,79.53
2019-02-26T03:20:44.310Z,79.55
2019-02-26T03:21:49.717Z,79.50
2019-02-26T03:22:52.753Z,79.49
2019-02-26T03:23:57.812Z,79.54
2019-02-26T03:25:04.202Z,79.79
2019-02-26T03:26:09.960Z,79.85
2019-02-26T03:27:11.656Z,80.03
2019-02-26T03:28:15.868Z,80.37
2019-02-26T03:29:20.083Z,80.73
2019-02-26T03:30:31.834Z,80.94
2019-02-26T03:31:31.055Z,80.73
2019-02-26T03:32:36.068Z,80.85
2019-02-26T03:33:36.763Z,80.59
2019-02-26T03:34:41.111Z,81.21
2019-02-26T03:35:45.301Z,80.97
2019-02-26T03:36:49.472Z,81.27
2019-02-26T03:37:55.544Z,81.04
2019-02-26T03:39:00.756Z,80.77
2019-02-26T03:40:03.661Z,80.92
2019-02-26T03:41:06.311Z,80.75
2019-02-26T03:42:13.282Z,80.73
2019-02-26T03:43:16.228Z,80.85
2019-02-26T03:44:18.932Z,80.95
2019-02-26T03:45:24.737Z,81.10
2019-02-26T03:46:27.344Z,81.05
2019-02-26T03:47:31.553Z,80.86
2019-02-26T03:48:35.743Z,80.70
2019-02-26T03:49:42.227Z,80.68
2019-02-26T03:50:44.703Z,80.63
2019-02-26T03:51:48.325Z,80.67
2019-02-26T03:52:52.647Z,80.53
2019-02-26T03:53:56.803Z,80.86
2019-02-26T03:55:03.443Z,81.08
2019-02-26T03:56:08.028Z,81.07
2019-02-26T03:57:11.398Z,80.75
2019-02-26T03:58:13.649Z,80.58
2019-02-26T03:59:17.849Z,80.54
2019-02-26T04:00:22.180Z,80.38
2019-02-26T04:01:26.316Z,80.61
2019-02-26T04:02:30.531Z,81.09
2019-02-26T04:03:36.856Z,81.30
2019-02-26T04:04:38.870Z,81.13
2019-02-26T04:05:43.088Z,80.96
2019-02-26T04:06:47.274Z,80.80
2019-02-26T04:07:54.361Z,80.73
2019-02-26T04:08:56.023Z,80.93
2019-02-26T04:09:59.910Z,81.28
2019-02-26T04:11:04.133Z,81.61
2019-02-26T04:12:10.366Z,81.18
2019-02-26T04:13:12.559Z,80.93
2019-02-26T04:14:18.125Z,80.84
2019-02-26T04:15:24.334Z,80.99
2019-02-26T04:16:25.230Z,80.92
2019-02-26T04:17:30.765Z,80.97
2019-02-26T04:18:34.725Z,81.21
2019-02-26T04:19:37.868Z,80.91
2019-02-26T04:20:44.340Z,80.87
2019-02-26T04:21:46.213Z,81.15
2019-02-26T04:22:53.285Z,81.59
2019-02-26T04:23:54.733Z,81.27
2019-02-26T04:25:01.458Z,81.04
2019-02-26T04:26:03.131Z,80.94
2019-02-26T04:27:07.322Z,81.03
2019-02-26T04:28:11.522Z,81.48
2019-02-26T04:29:15.741Z,81.20
2019-02-26T04:30:19.972Z,81.04
2019-02-26T04:31:24.187Z,80.89
2019-02-26T04:32:28.376Z,80.85
2019-02-26T04:33:33.419Z,80.90
2019-02-26T04:34:36.851Z,81.25
2019-02-26T04:35:42.332Z,81.47
2019-02-26T04:36:47.136Z,81.45
2019-02-26T04:37:49.461Z,81.33
2019-02-26T04:38:55.598Z,81.10
2019-02-26T04:39:59.115Z,81.11
2019-02-26T04:41:03.035Z,80.90
2019-02-26T04:42:08.693Z,81.20
2019-02-26T04:43:12.829Z,81.25
2019-02-26T04:44:14.630Z,81.42
2019-02-26T04:45:18.786Z,81.03
2019-02-26T04:46:25.277Z,81.49
2019-02-26T04:47:29.804Z,81.72
2019-02-26T04:48:32.525Z,81.61
2019-02-26T04:49:38.963Z,81.28
2019-02-26T04:50:41.566Z,81.24
2019-02-26T04:51:45.036Z,81.63
2019-02-26T04:52:48.314Z,81.79
2019-02-26T04:53:54.153Z,81.98
2019-02-26T04:54:56.713Z,82.22
2019-02-26T04:56:02.982Z,82.30
2019-02-26T04:57:05.214Z,82.22
2019-02-26T04:58:12.217Z,82.32
2019-02-26T04:59:14.488Z,82.21
2019-02-26T05:00:16.694Z,81.98
2019-02-26T05:01:20.879Z,81.85
2019-02-26T05:02:25.107Z,81.78
2019-02-26T05:03:29.324Z,81.81
2019-02-26T05:04:36.533Z,81.56
2019-02-26T05:05:37.749Z,81.45
2019-02-26T05:06:41.947Z,81.70
2019-02-26T05:07:47.075Z,81.45
2019-02-26T05:08:50.434Z,81.26
2019-02-26T05:09:56.901Z,81.25
2019-02-26T05:11:00.011Z,81.47
2019-02-26T05:12:02.930Z,81.62
2019-02-26T05:13:09.532Z,81.91
2019-02-26T05:14:12.257Z,82.09
2019-02-26T05:15:19.820Z,82.12
2019-02-26T05:16:19.765Z,82.16
2019-02-26T05:17:26.976Z,81.98
2019-02-26T05:18:29.251Z,81.84
2019-02-26T05:19:32.297Z,81.95
2019-02-26T05:20:38.855Z,81.94
2019-02-26T05:21:40.693Z,81.87
2019-02-26T05:22:45.026Z,81.64
2019-02-26T05:23:49.574Z,81.65
2019-02-26T05:24:53.376Z,81.90
2019-02-26T05:26:02.940Z,81.71
2019-02-26T05:27:01.930Z,81.80
2019-02-26T05:28:07.220Z,81.61
2019-02-26T05:29:10.274Z,81.67
2019-02-26T05:30:17.232Z,81.78
2019-02-26T05:31:18.649Z,81.94
2019-02-26T05:32:26.539Z,82.12
2019-02-26T05:33:28.526Z,82.02
2019-02-26T05:34:31.285Z,81.96
2019-02-26T05:35:37.345Z,82.17
2019-02-26T05:36:42.903Z,82.63
2019-02-26T05:37:43.916Z,82.68
2019-02-26T05:38:49.316Z,82.79
2019-02-26T05:39:54.609Z,82.81
2019-02-26T05:40:56.472Z,82.89
2019-02-26T05:42:01.321Z,82.79
2019-02-26T05:43:06.706Z,82.75
2019-02-26T05:44:10.731Z,82.79
2019-02-26T05:45:13.673Z,82.77
2019-02-26T05:46:19.563Z,82.62
2019-02-26T05:47:24.031Z,82.50
2019-02-26T05:48:26.362Z,82.34
2019-02-26T05:49:33.824Z,82.18
2019-02-26T05:50:36.248Z,82.08
2019-02-26T05:51:38.971Z,81.98
2019-02-26T05:52:43.083Z,82.01
2019-02-26T05:53:47.315Z,82.08
2019-02-26T05:54:52.679Z,82.08
2019-02-26T05:55:56.066Z,81.90
2019-02-26T05:57:01.822Z,81.81
2019-02-26T05:58:04.410Z,81.89
2019-02-26T05:59:09.522Z,81.64
2019-02-26T06:00:14.546Z,81.63
2019-02-26T06:01:19.251Z,81.80
2019-02-26T06:02:22.279Z,81.92
2019-02-26T06:03:25.345Z,81.97
2019-02-26T06:04:31.705Z,82.33
2019-02-26T06:05:33.651Z,82.39
2019-02-26T06:06:37.895Z,82.55
2019-02-26T06:07:42.115Z,82.19
2019-02-26T06:08:46.219Z,82.08
2019-02-26T06:09:51.726Z,81.97
2019-02-26T06:10:54.705Z,82.28
2019-02-26T06:11:58.996Z,82.56
2019-02-26T06:13:05.023Z,82.55
2019-02-26T06:14:09.793Z,82.67
2019-02-26T06:15:11.430Z,82.60
2019-02-26T06:16:15.662Z,82.64
2019-02-26T06:17:19.880Z,82.74
2019-02-26T06:18:24.065Z,82.39
2019-02-26T06:19:30.113Z,82.32
2019-02-26T06:20:36.097Z,82.47
2019-02-26T06:21:39.604Z,82.65
2019-02-26T06:22:40.840Z,82.75
2019-02-26T06:23:44.938Z,82.37
2019-02-26T06:24:49.202Z,82.15
2019-02-26T06:25:55.459Z,82.16
2019-02-26T06:27:00.514Z,82.21
2019-02-26T06:28:06.875Z,82.19
2019-02-26T06:29:08.002Z,82.38
2019-02-26T06:30:12.542Z,82.57
2019-02-26T06:31:17.426Z,82.64
2019-02-26T06:32:20.606Z,82.78
2019-02-26T06:33:24.733Z,82.74
2019-02-26T06:34:29.016Z,82.98
2019-02-26T06:35:33.668Z,83.22
2019-02-26T06:36:37.351Z,83.45
2019-02-26T06:37:41.613Z,83.15
2019-02-26T06:38:49.327Z,83.18
2019-02-26T06:39:52.637Z,83.31
2019-02-26T06:40:54.301Z,83.31
2019-02-26T06:41:58.452Z,83.25
2019-02-26T06:43:02.491Z,82.94
2019-02-26T06:44:06.909Z,82.85
2019-02-26T06:45:13.248Z,83.03
2019-02-26T06:46:15.361Z,83.05
2019-02-26T06:47:21.131Z,83.01
2019-02-26T06:48:25.025Z,83.02
2019-02-26T06:49:29.101Z,82.81
2019-02-26T06:50:33.909Z,82.71
2019-02-26T06:51:36.483Z,82.59
2019-02-26T06:52:43.039Z,82.44
2019-02-26T06:53:48.988Z,82.42
2019-02-26T06:54:54.215Z,82.38
2019-02-26T06:55:53.512Z,82.55
2019-02-26T06:56:57.773Z,82.55
2019-02-26T06:58:01.953Z,82.74
2019-02-26T06:59:07.467Z,82.94
2019-02-26T07:00:10.226Z,82.94
2019-02-26T07:01:16.529Z,82.96
2019-02-26T07:02:18.746Z,83.05
2019-02-26T07:03:24.797Z,83.12
2019-02-26T07:04:30.114Z,83.03
2019-02-26T07:05:31.245Z,82.88
2019-02-26T07:06:35.489Z,82.82
2019-02-26T07:07:39.791Z,82.95
2019-02-26T07:08:45.036Z,83.12
2019-02-26T07:09:48.157Z,83.22
2019-02-26T07:10:52.414Z,83.25
2019-02-26T07:11:56.604Z,83.43
2019-02-26T07:13:02.131Z,83.27
2019-02-26T07:14:05.561Z,83.20
2019-02-26T07:15:11.705Z,83.16
2019-02-26T07:16:13.375Z,83.16
2019-02-26T07:17:19.501Z,83.06
2019-02-26T07:18:21.867Z,83.22
2019-02-26T07:19:27.936Z,83.24
2019-02-26T07:20:34.085Z,83.09
2019-02-26T07:21:34.478Z,83.27
2019-02-26T07:22:39.827Z,83.14
2019-02-26T07:23:42.971Z,82.95
2019-02-26T07:24:49.531Z,82.90
2019-02-26T07:25:51.371Z,83.26
2019-02-26T07:26:55.591Z,83.31
2019-02-26T07:28:01.087Z,83.32
2019-02-26T07:29:05.846Z,82.94
2019-02-26T07:30:08.274Z,82.89
2019-02-26T07:31:12.469Z,82.95
2019-02-26T07:32:17.927Z,83.00
2019-02-26T07:33:20.985Z,83.03
2019-02-26T07:34:27.348Z,82.77
2019-02-26T07:35:30.661Z,82.91
2019-02-26T07:36:34.095Z,82.95
2019-02-26T07:37:40.278Z,82.98
2019-02-26T07:38:46.047Z,82.80
2019-02-26T07:39:47.350Z,82.90
2019-02-26T07:40:50.897Z,82.63
2019-02-26T07:41:55.116Z,82.64
2019-02-26T07:42:59.328Z,82.62
2019-02-26T07:44:03.371Z,82.78
2019-02-26T07:45:14.580Z,82.61
2019-02-26T07:46:12.662Z,82.50
2019-02-26T07:47:16.135Z,82.64
2019-02-26T07:48:21.271Z,82.42
2019-02-26T07:49:24.688Z,82.30
2019-02-26T07:50:31.478Z,82.16
2019-02-26T07:51:33.823Z,82.25
2019-02-26T07:52:37.135Z,82.22
2019-02-26T07:53:44.120Z,82.51
2019-02-26T07:54:47.598Z,82.19
2019-02-26T07:55:49.983Z,82.21
2019-02-26T07:56:55.151Z,82.07
2019-02-26T07:57:58.434Z,82.06
2019-02-26T07:59:06.799Z,82.01
2019-02-26T08:00:07.000Z,81.94
2019-02-26T08:01:11.157Z,82.00
2019-02-26T08:02:15.381Z,82.41
2019-02-26T08:03:24.788Z,82.49
2019-02-26T08:04:25.858Z,82.63
2019-02-26T08:05:30.157Z,82.70
2019-02-26T08:06:36.184Z,82.72
2019-02-26T08:07:38.469Z,82.52
2019-02-26T08:08:44.888Z,82.52
2019-02-26T08:09:47.014Z,82.72
2019-02-26T08:10:53.128Z,82.69
2019-02-26T08:11:55.502Z,82.60
2019-02-26T08:13:01.553Z,82.69
2019-02-26T08:14:03.877Z,82.83
2019-02-26T08:15:10.386Z,82.61
2019-02-26T08:16:12.276Z,82.63
2019-02-26T08:17:16.547Z,82.64
2019-02-26T08:18:20.788Z,82.49
2019-02-26T08:19:29.672Z,82.39
2019-02-26T08:20:30.498Z,82.44
2019-02-26T08:21:33.443Z,82.53
2019-02-26T08:22:37.675Z,82.52
2019-02-26T08:23:43.652Z,82.53
2019-02-26T08:24:47.791Z,82.44
2019-02-26T08:25:52.286Z,82.36
2019-02-26T08:26:54.508Z,82.35
2019-02-26T08:28:01.000Z,82.33
2019-02-26T08:29:05.094Z,82.17
2019-02-26T08:30:07.039Z,82.11
2019-02-26T08:31:15.449Z,82.14
2019-02-26T08:32:18.108Z,82.06
2019-02-26T08:33:19.720Z,82.00
2019-02-26T08:34:23.967Z,82.15
2019-02-26T08:35:28.146Z,81.87
2019-02-26T08:36:32.399Z,81.76
2019-02-26T08:37:36.669Z,81.74
2019-02-26T08:38:41.017Z,81.74
2019-02-26T08:39:45.145Z,81.70
2019-02-26T08:40:49.466Z,81.61
2019-02-26T08:41:53.532Z,81.52
2019-02-26T08:42:57.707Z,81.45
2019-02-26T08:44:01.964Z,81.52
2019-02-26T08:45:06.326Z,81.52
2019-02-26T08:46:12.165Z,81.50
2019-02-26T08:47:16.723Z,81.47
2019-02-26T08:48:20.408Z,81.49
2019-02-26T08:49:23.268Z,81.57
2019-02-26T08:50:30.716Z,81.41
2019-02-26T08:51:31.625Z,81.36
2019-02-26T08:52:35.906Z,81.32
2019-02-26T08:53:40.053Z,81.29
2019-02-26T08:54:44.326Z,81.27
2019-02-26T08:55:48.585Z,81.29
2019-02-26T08:56:52.724Z,81.27
2019-02-26T08:57:57.000Z,81.22
2019-02-26T08:59:03.503Z,81.39
2019-02-26T09:00:05.514Z,81.48
2019-02-26T09:01:09.805Z,81.36
2019-02-26T09:02:14.025Z,81.23
2019-02-26T09:03:20.386Z,81.19
2019-02-26T09:04:23.891Z,81.15
2019-02-26T09:05:29.231Z,81.00
2019-02-26T09:06:30.994Z,81.07
2019-02-26T09:07:35.290Z,81.27
2019-02-26T09:08:40.605Z,81.30
2019-02-26T09:09:45.131Z,81.53
2019-02-26T09:10:48.651Z,81.65
2019-02-26T09:11:52.976Z,81.71
2019-02-26T09:12:56.374Z,81.93
2019-02-26T09:14:03.916Z,81.86
2019-02-26T09:15:04.769Z,81.92
2019-02-26T09:16:08.972Z,81.67
2019-02-26T09:17:13.256Z,81.64
2019-02-26T09:18:20.255Z,81.54
2019-02-26T09:19:22.635Z,81.43
2019-02-26T09:20:26.054Z,81.36
2019-02-26T09:21:30.328Z,81.50
2019-02-26T09:22:34.670Z,81.60
2019-02-26T09:23:38.800Z,81.51
2019-02-26T09:24:42.953Z,81.49
2019-02-26T09:25:51.527Z,81.48
2019-02-26T09:26:54.846Z,81.38
2019-02-26T09:27:57.685Z,81.38
2019-02-26T09:29:02.056Z,81.31
2019-02-26T09:30:08.478Z,81.11
2019-02-26T09:31:12.315Z,81.12
2019-02-26T09:32:16.537Z,81.09
2019-02-26T09:33:18.835Z,81.06
2019-02-26T09:34:26.031Z,80.98
2019-02-26T09:35:30.228Z,81.18
2019-02-26T09:36:31.652Z,81.15
2019-02-26T09:37:35.746Z,81.22
2019-02-26T09:38:41.765Z,81.14
2019-02-26T09:39:44.306Z,81.06
2019-02-26T09:40:50.105Z,81.18
2019-02-26T09:41:52.841Z,81.20
2019-02-26T09:42:59.921Z,80.99
2019-02-26T09:44:03.856Z,80.97
2019-02-26T09:45:05.673Z,80.87
2019-02-26T09:46:14.405Z,80.85
2019-02-26T09:47:14.267Z,80.77
2019-02-26T09:48:19.411Z,80.70
2019-02-26T09:49:24.589Z,80.58
2019-02-26T09:50:27.125Z,80.40
2019-02-26T09:51:33.076Z,80.55
2019-02-26T09:52:35.675Z,80.35
2019-02-26T09:53:39.871Z,80.13
2019-02-26T09:54:46.387Z,80.26
2019-02-26T09:55:48.443Z,80.27
2019-02-26T09:56:52.728Z,80.18
2019-02-26T09:57:57.081Z,79.89
2019-02-26T09:59:02.471Z,79.90
2019-02-26T10:00:05.554Z,79.96
2019-02-26T10:01:11.082Z,79.84
2019-02-26T10:02:14.231Z,79.77
2019-02-26T10:03:18.407Z,79.46
2019-02-26T10:04:24.298Z,79.56
2019-02-26T10:05:27.075Z,79.70
2019-02-26T10:06:31.316Z,79.69
2019-02-26T10:07:36.967Z,79.68
2019-02-26T10:08:39.964Z,79.48
2019-02-26T10:09:46.584Z,79.39
2019-02-26T10:10:48.527Z,79.21
2019-02-26T10:11:52.785Z,79.57
2019-02-26T10:12:59.455Z,79.74
2019-02-26T10:14:02.898Z,80.00
2019-02-26T10:15:05.522Z,79.98
2019-02-26T10:16:09.784Z,80.05
2019-02-26T10:17:14.596Z,79.80
2019-02-26T10:18:18.319Z,79.88
2019-02-26T10:19:22.547Z,79.89
2019-02-26T10:20:29.454Z,79.71
2019-02-26T10:21:33.079Z,79.62
2019-02-26T10:22:36.191Z,79.63
2019-02-26T10:23:39.502Z,79.48
2019-02-26T10:24:43.885Z,79.42
2019-02-26T10:25:53.183Z,79.58
2019-02-26T10:26:52.309Z,79.61
2019-02-26T10:27:56.633Z,79.69
2019-02-26T10:29:04.421Z,79.70
2019-02-26T10:30:07.863Z,79.56
2019-02-26T10:31:09.806Z,79.58
2019-02-26T10:32:13.648Z,79.46
2019-02-26T10:33:20.292Z,79.06
2019-02-26T10:34:25.897Z,79.21
2019-02-26T10:35:33.206Z,79.21
2019-02-26T10:36:34.680Z,79.19
2019-02-26T10:37:36.943Z,79.11
2019-02-26T10:38:39.400Z,79.19
2019-02-26T10:39:44.579Z,79.33
2019-02-26T10:40:53.949Z,79.06
2019-02-26T10:41:52.253Z,79.11
2019-02-26T10:42:56.508Z,79.12
2019-02-26T10:44:00.760Z,79.30
2019-02-26T10:45:05.093Z,79.40
2019-02-26T10:46:09.333Z,79.36
2019-02-26T10:47:13.692Z,79.33
2019-02-26T10:48:21.551Z,79.42
2019-02-26T10:49:22.196Z,79.61
2019-02-26T10:50:31.388Z,79.50
2019-02-26T10:51:30.752Z,79.45
2019-02-26T10:52:35.031Z,79.56
2019-02-26T10:53:39.345Z,79.64
2019-02-26T10:54:46.481Z,79.74
2019-02-26T10:55:47.839Z,79.50
2019-02-26T10:56:52.103Z,79.31
2019-02-26T10:57:58.607Z,79.37
2019-02-26T10:59:03.559Z,79.44
2019-02-26T11:00:07.895Z,79.47
2019-02-26T11:01:09.236Z,79.47
2019-02-26T11:02:14.695Z,79.45
2019-02-26T11:03:20.085Z,79.43
2019-02-26T11:04:21.865Z,79.31
2019-02-26T11:05:26.776Z,79.30
2019-02-26T11:06:33.125Z,79.24
2019-02-26T11:07:37.518Z,79.22
2019-02-26T11:08:38.960Z,79.11
2019-02-26T11:09:44.844Z,79.33
2019-02-26T11:10:49.671Z,79.24
2019-02-26T11:11:51.810Z,79.17
2019-02-26T11:12:59.075Z,79.05
2019-02-26T11:14:00.451Z,79.04
2019-02-26T11:15:06.741Z,79.09
2019-02-26T11:16:08.955Z,79.16
2019-02-26T11:17:13.255Z,79.17
2019-02-26T11:18:18.697Z,79.01
2019-02-26T11:19:21.826Z,78.97
2019-02-26T11:20:30.007Z,79.07
2019-02-26T11:21:30.491Z,79.27
2019-02-26T11:22:34.687Z,79.20
2019-02-26T11:23:41.455Z,79.38
2019-02-26T11:24:43.229Z,79.33
2019-02-26T11:25:47.641Z,79.20
2019-02-26T11:26:51.842Z,79.28
2019-02-26T11:27:56.211Z,79.12
2019-02-26T11:29:00.463Z,79.07
2019-02-26T11:30:05.075Z,79.18
2019-02-26T11:31:10.978Z,79.19
2019-02-26T11:32:15.535Z,79.04
2019-02-26T11:33:17.616Z,78.92
2019-02-26T11:34:21.831Z,79.09
2019-02-26T11:35:27.438Z,79.21
2019-02-26T11:36:32.589Z,79.37
2019-02-26T11:37:34.701Z,79.44
2019-02-26T11:38:40.204Z,79.44
2019-02-26T11:39:43.384Z,79.36
2019-02-26T11:40:47.559Z,79.14
2019-02-26T11:41:53.722Z,79.05
2019-02-26T11:42:56.165Z,79.24
2019-02-26T11:44:00.421Z,79.38
2019-02-26T11:45:06.719Z,79.43
2019-02-26T11:46:09.001Z,79.42
2019-02-26T11:47:14.394Z,79.36
2019-02-26T11:48:17.829Z,79.40
2019-02-26T11:49:21.949Z,79.44
2019-02-26T11:50:28.018Z,79.46
2019-02-26T11:51:36.791Z,79.23
2019-02-26T11:52:36.423Z,79.39
2019-02-26T11:53:38.913Z,79.15
2019-02-26T11:54:44.674Z,79.19
2019-02-26T11:55:49.365Z,79.17
2019-02-26T11:56:52.509Z,79.15
2019-02-26T11:57:56.015Z,79.22
2019-02-26T11:59:00.308Z,79.24
2019-02-26T12:00:06.746Z,79.20
2019-02-26T12:01:08.848Z,79.20
2019-02-26T12:02:13.120Z,79.29
2019-02-26T12:03:17.445Z,79.25
2019-02-26T12:04:21.748Z,79.24
2019-02-26T12:05:32.850Z,79.24
2019-02-26T12:06:30.243Z,79.20
2019-02-26T12:07:34.926Z,79.18
2019-02-26T12:08:40.595Z,78.96
2019-02-26T12:09:43.382Z,78.85
2019-02-26T12:10:47.588Z,78.84
2019-02-26T12:11:51.837Z,78.79
2019-02-26T12:12:56.823Z,78.78
2019-02-26T12:14:00.497Z,78.86
2019-02-26T12:15:06.651Z,78.84
2019-02-26T12:16:09.068Z,78.87
2019-02-26T12:17:13.309Z,78.84
2019-02-26T12:18:19.385Z,78.63
2019-02-26T12:19:23.125Z,78.04
2019-02-26T12:20:26.271Z,78.22
2019-02-26T12:21:32.291Z,78.31
2019-02-26T12:22:34.624Z,78.39
2019-02-26T12:23:39.711Z,78.06
2019-02-26T12:24:43.575Z,78.29
2019-02-26T12:25:49.739Z,78.49
2019-02-26T12:26:52.500Z,78.58
2019-02-26T12:27:56.201Z,78.17
2019-02-26T12:29:02.150Z,77.70
2019-02-26T12:30:04.785Z,77.94
2019-02-26T12:31:10.708Z,78.14
2019-02-26T12:32:13.341Z,78.12
2019-02-26T12:33:17.606Z,77.94
2019-02-26T12:34:23.618Z,78.07
2019-02-26T12:35:26.155Z,77.04
2019-02-26T12:36:32.646Z,76.90
2019-02-26T12:37:34.816Z,76.30
2019-02-26T12:38:39.011Z,77.07
2019-02-26T12:39:44.385Z,76.07
2019-02-26T12:40:49.962Z,75.08
2019-02-26T12:41:51.950Z,76.33
2019-02-26T12:42:56.269Z,76.84
2019-02-26T12:44:02.050Z,74.87
2019-02-26T12:45:09.314Z,74.61
2019-02-26T12:46:09.293Z,75.41
2019-02-26T12:47:15.450Z,75.59
2019-02-26T12:48:21.974Z,74.53
2019-02-26T12:49:22.567Z,74.42
2019-02-26T12:50:29.561Z,75.57
2019-02-26T12:51:31.811Z,74.59
2019-02-26T12:52:35.048Z,75.33
2019-02-26T12:53:40.584Z,73.78
2019-02-26T12:54:43.622Z,74.28
2019-02-26T12:55:47.930Z,72.56
2019-02-26T12:56:54.769Z,71.94
2019-02-26T12:57:59.385Z,72.12
2019-02-26T12:59:00.975Z,72.14
2019-02-26T13:00:06.872Z,72.15
2019-02-26T13:01:09.435Z,72.41
2019-02-26T13:02:16.739Z,73.07
2019-02-26T13:03:19.892Z,73.10
2019-02-26T13:04:24.929Z,72.08
2019-02-26T13:05:26.725Z,72.11
2019-02-26T13:06:30.914Z,71.71
2019-02-26T13:07:35.379Z,72.39
2019-02-26T13:08:40.398Z,71.92
2019-02-26T13:09:50.431Z,71.91
2019-02-26T13:10:54.424Z,73.04
2019-02-26T13:12:00.937Z,72.08
2019-02-26T13:13:00.079Z,71.61
2019-02-26T13:14:01.090Z,71.96
2019-02-26T13:15:08.785Z,71.91
2019-02-26T13:16:09.664Z,71.74
2019-02-26T13:17:17.300Z,71.58
2019-02-26T13:18:18.436Z,71.94
2019-02-26T13:19:25.305Z,70.93
2019-02-26T13:20:27.079Z,71.69
2019-02-26T13:21:31.377Z,71.96
2019-02-26T13:22:35.620Z,72.64
2019-02-26T13:23:39.958Z,70.98
2019-02-26T13:24:44.188Z,70.67
2019-02-26T13:25:48.560Z,70.39
2019-02-26T13:26:54.599Z,70.64
2019-02-26T13:27:57.120Z,70.75
2019-02-26T13:29:01.407Z,70.85
2019-02-26T13:30:05.631Z,71.21
2019-02-26T13:31:13.657Z,71.05
2019-02-26T13:32:17.572Z,71.02
2019-02-26T13:33:22.421Z,71.21
2019-02-26T13:34:22.865Z,72.00
2019-02-26T13:35:27.242Z,71.09
2019-02-26T13:36:35.111Z,70.72
2019-02-26T13:37:40.358Z,71.13
2019-02-26T13:38:44.682Z,70.89
2019-02-26T13:39:45.414Z,71.40
2019-02-26T13:40:48.728Z,71.49
2019-02-26T13:41:58.477Z,70.66
2019-02-26T13:44:01.654Z,70.62
2019-02-26T13:45:05.946Z,70.90
2019-02-26T13:46:10.235Z,70.72
2019-02-26T13:47:14.589Z,70.55
2019-02-26T13:48:18.894Z,71.16